Time;durP1;ratioP1;P1;durP2;ratioP2;P2;SDS_P1;SDS_P2;PMS_P1;PMS_P2;Temp;Humidity;BMP_temperature;BMP_pressure;BME280_temperature;BME280_humidity;BME280_pressure;Samples;Min_cycle;Max_cycle;Signal;HPM_P1;HPM_P2
2022/10/21 00:00:10;;;;;;;;;;;5.00;99.90;;;;;;5016029;28;19925;-65
2022/10/21 00:02:40;;;;;;;;;;;4.90;99.90;;;;;;5015882;28;19925;-68
2022/10/21 00:05:07;;;;;;;;;;;4.90;99.90;;;;;;5010905;28;19969;-64
2022/10/21 00:07:34;;;;;;;;;;;4.90;99.90;;;;;;5016549;28;19929;-64
2022/10/21 00:10:01;;;;;;;;;;;4.90;99.90;;;;;;5016485;28;19925;-63
2022/10/21 00:12:28;;;;;;;;;;;4.80;99.90;;;;;;5012144;28;19933;-64
2022/10/21 00:14:55;;;;;;;;;;;4.80;99.90;;;;;;5020592;28;19936;-64
2022/10/21 00:17:23;;;;;;;;;;;4.90;99.90;;;;;;5017155;28;20016;-63
2022/10/21 00:19:49;;;;;;;;;;;4.80;99.90;;;;;;5025174;28;19929;-68
2022/10/21 00:22:16;;;;;;;;;;;4.80;99.90;;;;;;5023633;28;19932;-64
2022/10/21 00:24:43;;;;;;;;;;;4.80;99.90;;;;;;5022683;28;20011;-63
2022/10/21 00:27:10;;;;;;;;;;;4.80;99.90;;;;;;5013153;28;20031;-67
2022/10/21 00:29:36;;;;;;;;;;;4.70;99.90;;;;;;5023611;28;20358;-66
2022/10/21 00:32:03;;;;;;;;;;;4.70;99.90;;;;;;5019567;28;19935;-63
2022/10/21 00:34:31;;;;;;;;;;;4.70;99.90;;;;;;5017578;28;20376;-65
2022/10/21 00:36:57;;;;;;;;;;;4.70;99.90;;;;;;5021545;28;20023;-64
2022/10/21 00:39:24;;;;;;;;;;;4.70;99.90;;;;;;5009661;28;20020;-64
2022/10/21 00:41:51;;;;;;;;;;;4.60;99.90;;;;;;5019677;28;19925;-70
2022/10/21 00:44:18;;;;;;;;;;;4.60;99.90;;;;;;5019494;28;19933;-65
2022/10/21 00:46:50;;;;;;;;;;;4.60;99.90;;;;;;5024232;28;19925;-64
2022/10/21 00:49:24;;;;;;;;;;;4.60;99.90;;;;;;5015357;28;20311;-63
2022/10/21 00:51:52;;;;;;;;;;;4.60;99.90;;;;;;5015886;28;19933;-63
2022/10/21 00:54:20;;;;;;;;;;;4.60;99.90;;;;;;5017146;28;19940;-64
2022/10/21 00:56:47;;;;;;;;;;;4.60;99.90;;;;;;5010986;28;20331;-63
2022/10/21 00:59:14;;;;;;;;;;;4.60;99.90;;;;;;5016590;28;19925;-62
2022/10/21 01:01:41;;;;;;;;;;;4.60;99.90;;;;;;5015908;28;19960;-64
2022/10/21 01:04:08;;;;;;;;;;;4.60;99.90;;;;;;5014007;28;20016;-63
2022/10/21 01:06:35;;;;;;;;;;;4.60;99.90;;;;;;5015509;28;19948;-63
2022/10/21 01:09:03;;;;;;;;;;;4.60;99.90;;;;;;5016727;28;20331;-65
2022/10/21 01:11:40;;;;;;;;;;;4.60;99.90;;;;;;5012516;28;20008;-65
2022/10/21 01:14:06;;;;;;;;;;;4.60;99.90;;;;;;5015101;28;19932;-68
2022/10/21 01:16:42;;;;;;;;;;;4.60;99.90;;;;;;5021861;28;20015;-63
2022/10/21 01:19:46;;;;;;;;;;;4.60;99.90;;;;;;5013912;28;20036;-64
2022/10/21 01:22:37;;;;;;;;;;;4.50;99.90;;;;;;5014353;28;19980;-62
2022/10/21 01:25:04;;;;;;;;;;;4.60;99.90;;;;;;5017565;28;19985;-65
2022/10/21 01:27:37;;;;;;;;;;;4.50;99.90;;;;;;5019574;28;19929;-64
2022/10/21 01:30:11;;;;;;;;;;;4.50;99.90;;;;;;5014475;28;19956;-62
2022/10/21 01:32:44;;;;;;;;;;;4.50;99.90;;;;;;5012156;28;19930;-67
2022/10/21 01:35:19;;;;;;;;;;;4.50;99.90;;;;;;5021285;28;19939;-67
2022/10/21 01:38:04;;;;;;;;;;;4.50;99.90;;;;;;5014296;28;20349;-64
2022/10/21 01:40:34;;;;;;;;;;;4.50;99.90;;;;;;5016418;28;19969;-64
2022/10/21 01:43:27;;;;;;;;;;;4.50;99.90;;;;;;5020559;28;19936;-63
2022/10/21 01:45:58;;;;;;;;;;;4.50;99.90;;;;;;5007706;28;20015;-62
2022/10/21 01:48:27;;;;;;;;;;;4.50;99.90;;;;;;5020863;28;19929;-68
2022/10/21 01:51:01;;;;;;;;;;;4.60;99.90;;;;;;5013146;28;20583;-64
2022/10/21 01:53:30;;;;;;;;;;;4.50;99.90;;;;;;5014801;28;19967;-64
2022/10/21 01:55:57;;;;;;;;;;;4.50;99.90;;;;;;5023141;28;19961;-64
2022/10/21 01:58:26;;;;;;;;;;;4.50;99.90;;;;;;5020084;28;19925;-68
2022/10/21 02:00:55;;;;;;;;;;;4.50;99.90;;;;;;5018607;28;20039;-65
2022/10/21 02:03:23;;;;;;;;;;;4.50;99.90;;;;;;5013554;28;19937;-70
2022/10/21 02:05:50;;;;;;;;;;;4.60;99.90;;;;;;5016760;28;19929;-62
2022/10/21 02:08:16;;;;;;;;;;;4.60;99.90;;;;;;5020208;28;20286;-62
2022/10/21 02:10:52;;;;;;;;;;;4.60;99.90;;;;;;5019179;28;20251;-63
2022/10/21 02:13:25;;;;;;;;;;;4.60;99.90;;;;;;5010296;28;19940;-66
2022/10/21 02:15:56;;;;;;;;;;;4.60;99.90;;;;;;5019243;28;19941;-64
2022/10/21 02:18:24;;;;;;;;;;;4.70;99.90;;;;;;5011220;28;19939;-64
2022/10/21 02:21:11;;;;;;;;;;;4.70;99.90;;;;;;5017610;28;19951;-64
2022/10/21 02:23:56;;;;;;;;;;;4.70;99.90;;;;;;5014958;28;19943;-63
2022/10/21 02:26:24;;;;;;;;;;;4.70;99.90;;;;;;5018302;28;19933;-62
2022/10/21 02:28:52;;;;;;;;;;;4.70;99.90;;;;;;5013799;28;19925;-66
2022/10/21 02:31:37;;;;;;;;;;;4.80;99.90;;;;;;5010549;28;19933;-63
2022/10/21 02:34:08;;;;;;;;;;;4.80;99.90;;;;;;5020711;28;19979;-65
2022/10/21 02:36:44;;;;;;;;;;;4.80;99.90;;;;;;5020160;28;20451;-66
2022/10/21 02:39:18;;;;;;;;;;;4.90;99.90;;;;;;4994598;28;20153;-64
2022/10/21 02:41:47;;;;;;;;;;;4.90;99.90;;;;;;5011448;28;19995;-64
2022/10/21 02:44:13;;;;;;;;;;;5.00;99.90;;;;;;5015140;28;20151;-63
2022/10/21 02:46:41;;;;;;;;;;;5.00;99.90;;;;;;5024351;28;19943;-64
2022/10/21 02:49:08;;;;;;;;;;;5.00;99.90;;;;;;5012637;28;19935;-67
2022/10/21 02:51:35;;;;;;;;;;;5.00;99.90;;;;;;5013712;28;19930;-63
2022/10/21 02:54:02;;;;;;;;;;;5.10;99.90;;;;;;5018207;28;19932;-63
2022/10/21 02:56:29;;;;;;;;;;;5.10;99.90;;;;;;5008370;28;19938;-63
2022/10/21 02:59:00;;;;;;;;;;;5.10;99.90;;;;;;5015511;28;19929;-66
2022/10/21 03:01:27;;;;;;;;;;;5.10;99.90;;;;;;5018427;28;20650;-63
2022/10/21 03:03:54;;;;;;;;;;;5.20;99.90;;;;;;5013909;28;20395;-63
2022/10/21 03:06:21;;;;;;;;;;;5.20;99.90;;;;;;5014422;28;19964;-66
2022/10/21 03:08:48;;;;;;;;;;;5.20;99.90;;;;;;5010099;28;19935;-67
2022/10/21 03:11:15;;;;;;;;;;;5.30;99.90;;;;;;5009980;28;19949;-63
2022/10/21 03:13:41;;;;;;;;;;;5.30;99.90;;;;;;5029240;28;19931;-62
2022/10/21 03:16:08;;;;;;;;;;;5.30;99.90;;;;;;5014570;28;20048;-65
2022/10/21 03:18:35;;;;;;;;;;;5.40;99.90;;;;;;5015917;28;19925;-63
2022/10/21 03:21:02;;;;;;;;;;;5.40;99.90;;;;;;5013520;28;19933;-69
2022/10/21 03:23:29;;;;;;;;;;;5.40;99.90;;;;;;5029596;28;20325;-66
2022/10/21 03:25:55;;;;;;;;;;;5.50;99.90;;;;;;5023119;28;19948;-67
2022/10/21 03:28:22;;;;;;;;;;;5.50;99.90;;;;;;5021195;28;19929;-63
2022/10/21 03:30:49;;;;;;;;;;;5.50;99.90;;;;;;5019427;28;19936;-65
2022/10/21 03:33:15;;;;;;;;;;;5.60;99.90;;;;;;5030863;28;19929;-67
2022/10/21 03:35:42;;;;;;;;;;;5.60;99.90;;;;;;5021104;28;19945;-65
2022/10/21 03:38:09;;;;;;;;;;;5.60;99.90;;;;;;5019838;28;19929;-67
2022/10/21 03:40:36;;;;;;;;;;;5.70;99.90;;;;;;5018178;28;19925;-64
2022/10/21 03:43:02;;;;;;;;;;;5.70;99.90;;;;;;5017918;28;19968;-67
2022/10/21 03:45:29;;;;;;;;;;;5.70;99.90;;;;;;5020653;28;20244;-64
2022/10/21 03:47:56;;;;;;;;;;;5.80;99.90;;;;;;5019969;28;20431;-66
2022/10/21 03:50:23;;;;;;;;;;;5.80;99.90;;;;;;5016684;28;19934;-65
2022/10/21 03:52:52;;;;;;;;;;;5.80;99.90;;;;;;5020140;28;19926;-65
2022/10/21 03:55:19;;;;;;;;;;;5.80;99.90;;;;;;5018644;28;20032;-63
2022/10/21 03:57:47;;;;;;;;;;;5.80;99.90;;;;;;5021685;28;20008;-64
2022/10/21 04:00:14;;;;;;;;;;;5.80;99.90;;;;;;5027142;28;19929;-63
2022/10/21 04:02:41;;;;;;;;;;;5.90;99.90;;;;;;5019873;28;20424;-66
2022/10/21 04:05:08;;;;;;;;;;;5.90;99.90;;;;;;5018013;28;19956;-64
2022/10/21 04:07:35;;;;;;;;;;;5.90;99.90;;;;;;5018907;28;20019;-65
2022/10/21 04:10:02;;;;;;;;;;;5.90;99.90;;;;;;5016074;28;19939;-66
2022/10/21 04:12:29;;;;;;;;;;;5.90;99.90;;;;;;5018557;28;19929;-63
2022/10/21 04:14:56;;;;;;;;;;;5.90;99.90;;;;;;5019521;28;20025;-63
2022/10/21 04:17:23;;;;;;;;;;;5.90;99.90;;;;;;5017542;28;19929;-64
2022/10/21 04:19:49;;;;;;;;;;;6.00;99.90;;;;;;5015881;28;19937;-64
2022/10/21 04:22:16;;;;;;;;;;;5.90;99.90;;;;;;5014012;28;19987;-64
2022/10/21 04:24:43;;;;;;;;;;;6.00;99.90;;;;;;5020282;28;19932;-68
2022/10/21 04:27:10;;;;;;;;;;;6.00;99.90;;;;;;5018319;28;19935;-63
2022/10/21 04:29:37;;;;;;;;;;;6.10;99.90;;;;;;5021458;28;19945;-63
2022/10/21 04:32:04;;;;;;;;;;;6.00;99.90;;;;;;5014977;28;20368;-67
2022/10/21 04:34:31;;;;;;;;;;;6.10;99.90;;;;;;5023944;28;20790;-66
2022/10/21 04:36:57;;;;;;;;;;;6.10;99.90;;;;;;5016493;28;19991;-64
2022/10/21 04:39:29;;;;;;;;;;;6.10;99.90;;;;;;5013392;28;19960;-63
2022/10/21 04:41:57;;;;;;;;;;;6.10;99.90;;;;;;5013509;28;19924;-64
2022/10/21 04:44:24;;;;;;;;;;;6.10;99.90;;;;;;5021808;28;19964;-63
2022/10/21 04:46:50;;;;;;;;;;;6.10;99.90;;;;;;5018461;28;19925;-65
2022/10/21 04:49:17;;;;;;;;;;;6.10;99.90;;;;;;5014319;28;20012;-63
2022/10/21 04:51:44;;;;;;;;;;;6.10;99.90;;;;;;5025826;28;19929;-63
2022/10/21 04:54:12;;;;;;;;;;;6.10;99.90;;;;;;5023823;28;19929;-63
2022/10/21 04:56:39;;;;;;;;;;;6.10;99.90;;;;;;5017330;28;19967;-63
2022/10/21 04:59:06;;;;;;;;;;;6.10;99.90;;;;;;5015961;28;19935;-64
2022/10/21 05:01:33;;;;;;;;;;;6.00;99.90;;;;;;5019741;28;19930;-66
2022/10/21 05:03:59;;;;;;;;;;;6.00;99.90;;;;;;5023072;28;19935;-65
2022/10/21 05:06:26;;;;;;;;;;;6.00;99.90;;;;;;5013617;28;20075;-66
2022/10/21 05:08:53;;;;;;;;;;;6.00;99.90;;;;;;5015143;28;20429;-66
2022/10/21 05:11:20;;;;;;;;;;;5.90;99.90;;;;;;5015036;28;20288;-63
2022/10/21 05:13:47;;;;;;;;;;;5.90;99.90;;;;;;5020470;28;19939;-64
2022/10/21 05:16:13;;;;;;;;;;;5.90;99.90;;;;;;5014447;28;20047;-65
2022/10/21 05:18:40;;;;;;;;;;;5.90;99.90;;;;;;5012252;28;20248;-63
2022/10/21 05:21:07;;;;;;;;;;;5.80;99.90;;;;;;5014853;28;19961;-64
2022/10/21 05:23:34;;;;;;;;;;;5.80;99.90;;;;;;5020755;28;19935;-67
2022/10/21 05:26:00;;;;;;;;;;;5.80;99.90;;;;;;5014686;28;20543;-68
2022/10/21 05:28:27;;;;;;;;;;;5.80;99.90;;;;;;5017226;28;20235;-64
2022/10/21 05:30:54;;;;;;;;;;;5.70;99.90;;;;;;5017316;28;20394;-70
2022/10/21 05:33:21;;;;;;;;;;;5.70;99.90;;;;;;5019770;28;19935;-63
2022/10/21 05:35:59;;;;;;;;;;;5.70;99.90;;;;;;5020845;28;19964;-63
2022/10/21 05:38:29;;;;;;;;;;;5.70;99.90;;;;;;5009941;28;19991;-63
2022/10/21 05:40:57;;;;;;;;;;;5.70;99.90;;;;;;5017279;28;20025;-64
2022/10/21 05:43:23;;;;;;;;;;;5.60;99.90;;;;;;5010997;28;19929;-63
2022/10/21 05:45:50;;;;;;;;;;;5.60;99.90;;;;;;5018022;28;20108;-68
2022/10/21 05:48:17;;;;;;;;;;;5.60;99.90;;;;;;5021349;28;20395;-62
2022/10/21 05:50:45;;;;;;;;;;;5.60;99.90;;;;;;5017071;28;20269;-64
2022/10/21 05:53:12;;;;;;;;;;;5.60;99.90;;;;;;5011173;28;19935;-65
2022/10/21 05:55:39;;;;;;;;;;;5.60;99.90;;;;;;5015425;28;19952;-64
2022/10/21 05:58:05;;;;;;;;;;;5.60;99.90;;;;;;5016508;28;19925;-67
2022/10/21 06:00:32;;;;;;;;;;;5.60;99.90;;;;;;5015989;28;20008;-64
2022/10/21 06:02:59;;;;;;;;;;;5.60;99.90;;;;;;5013405;28;19929;-66
2022/10/21 06:05:26;;;;;;;;;;;5.60;99.90;;;;;;5014749;28;20020;-63
2022/10/21 06:07:53;;;;;;;;;;;5.60;99.90;;;;;;5015375;28;19933;-65
2022/10/21 06:10:20;;;;;;;;;;;5.60;99.90;;;;;;5017567;28;19940;-67
2022/10/21 06:12:50;;;;;;;;;;;5.60;99.90;;;;;;5018003;28;20387;-65
2022/10/21 06:15:17;;;;;;;;;;;5.60;99.90;;;;;;5012541;28;19929;-65
2022/10/21 06:17:44;;;;;;;;;;;5.70;99.90;;;;;;5009932;28;19925;-64
2022/10/21 06:20:11;;;;;;;;;;;5.70;99.90;;;;;;5015956;28;19925;-62
2022/10/21 06:22:38;;;;;;;;;;;5.70;99.90;;;;;;5011749;28;19987;-65
2022/10/21 06:25:05;;;;;;;;;;;5.70;99.90;;;;;;5016108;28;20015;-66
2022/10/21 06:27:32;;;;;;;;;;;5.70;99.90;;;;;;5010260;28;19925;-64
2022/10/21 06:29:59;;;;;;;;;;;5.70;99.90;;;;;;5012823;28;20383;-64
2022/10/21 06:32:26;;;;;;;;;;;5.70;99.90;;;;;;5020876;28;19936;-63
2022/10/21 06:34:53;;;;;;;;;;;5.80;99.90;;;;;;5016916;28;19929;-64
2022/10/21 06:37:19;;;;;;;;;;;5.80;99.90;;;;;;5020056;28;21877;-63
2022/10/21 06:39:46;;;;;;;;;;;5.80;99.90;;;;;;5021525;28;19940;-64
2022/10/21 06:42:14;;;;;;;;;;;5.90;99.90;;;;;;5019173;28;19931;-64
2022/10/21 06:44:46;;;;;;;;;;;5.80;99.90;;;;;;5016604;28;20699;-63
2022/10/21 06:47:13;;;;;;;;;;;5.90;99.90;;;;;;5012611;28;19964;-63
2022/10/21 06:49:39;;;;;;;;;;;5.90;99.90;;;;;;5017599;28;19967;-63
2022/10/21 06:52:06;;;;;;;;;;;6.00;99.90;;;;;;5014787;28;19933;-67
2022/10/21 06:54:33;;;;;;;;;;;6.00;99.90;;;;;;5019032;28;20034;-64
2022/10/21 06:57:00;;;;;;;;;;;6.10;99.90;;;;;;5014268;28;19929;-66
2022/10/21 06:59:26;;;;;;;;;;;6.10;99.90;;;;;;5014369;28;20678;-68
2022/10/21 07:01:53;;;;;;;;;;;6.10;99.90;;;;;;5017990;28;19929;-65
2022/10/21 07:04:26;;;;;;;;;;;6.10;99.90;;;;;;5022484;28;20411;-66
2022/10/21 07:06:53;;;;;;;;;;;6.20;99.90;;;;;;5018382;28;20387;-68
2022/10/21 07:09:20;;;;;;;;;;;6.20;99.90;;;;;;5022762;28;19972;-67
2022/10/21 07:11:47;;;;;;;;;;;6.30;99.90;;;;;;5019988;28;19929;-66
2022/10/21 07:14:14;;;;;;;;;;;6.30;99.90;;;;;;5024296;28;19991;-66
2022/10/21 07:16:41;;;;;;;;;;;6.30;99.90;;;;;;5016546;28;19936;-64
2022/10/21 07:19:09;;;;;;;;;;;6.40;99.90;;;;;;5013993;28;20271;-67
2022/10/21 07:21:35;;;;;;;;;;;6.40;99.90;;;;;;5023583;28;19925;-63
2022/10/21 07:24:02;;;;;;;;;;;6.50;99.90;;;;;;5021984;28;19936;-65
2022/10/21 07:26:31;;;;;;;;;;;6.50;99.90;;;;;;5018563;28;20009;-65
2022/10/21 07:28:59;;;;;;;;;;;6.50;99.90;;;;;;5023929;28;19933;-64
2022/10/21 07:31:26;;;;;;;;;;;6.60;99.90;;;;;;5020585;28;19979;-63
2022/10/21 07:33:54;;;;;;;;;;;6.70;99.90;;;;;;5019768;28;19941;-67
2022/10/21 07:36:25;;;;;;;;;;;6.70;99.90;;;;;;5024679;28;19932;-63
2022/10/21 07:38:52;;;;;;;;;;;6.80;99.90;;;;;;5018776;28;20312;-64
2022/10/21 07:41:24;;;;;;;;;;;6.80;99.90;;;;;;5013160;28;19943;-65
2022/10/21 07:43:51;;;;;;;;;;;6.90;99.90;;;;;;5011895;28;19932;-64
2022/10/21 07:46:18;;;;;;;;;;;6.90;99.90;;;;;;5017324;28;20067;-63
2022/10/21 07:48:45;;;;;;;;;;;6.90;99.90;;;;;;5015510;28;19929;-66
2022/10/21 07:51:14;;;;;;;;;;;6.90;99.90;;;;;;5022762;28;19925;-63
2022/10/21 07:53:41;;;;;;;;;;;6.90;99.90;;;;;;5010532;28;19968;-67
2022/10/21 07:56:13;;;;;;;;;;;7.00;99.90;;;;;;5013651;28;19926;-67
2022/10/21 07:58:40;;;;;;;;;;;7.10;99.90;;;;;;5013079;28;19932;-65
2022/10/21 08:01:07;;;;;;;;;;;7.10;99.90;;;;;;5011630;28;19933;-66
2022/10/21 08:03:34;;;;;;;;;;;7.10;99.90;;;;;;5015680;28;19972;-66
2022/10/21 08:06:02;;;;;;;;;;;7.20;99.90;;;;;;5018005;28;19976;-68
2022/10/21 08:08:30;;;;;;;;;;;7.20;99.90;;;;;;5019837;28;19929;-63
2022/10/21 08:10:57;;;;;;;;;;;7.30;99.90;;;;;;5018655;28;19932;-67
2022/10/21 08:13:24;;;;;;;;;;;7.30;99.90;;;;;;5013672;28;20055;-63
2022/10/21 08:15:53;;;;;;;;;;;7.40;99.90;;;;;;5021290;28;19925;-63
2022/10/21 08:18:20;;;;;;;;;;;7.50;99.90;;;;;;5017120;28;20258;-65
2022/10/21 08:20:47;;;;;;;;;;;7.50;99.90;;;;;;5013144;28;19931;-63
2022/10/21 08:23:16;;;;;;;;;;;7.60;99.90;;;;;;4997478;28;20004;-66
2022/10/21 08:25:47;;;;;;;;;;;7.60;99.90;;;;;;5017965;28;19931;-65
2022/10/21 08:28:14;;;;;;;;;;;7.60;99.90;;;;;;5010894;28;20015;-67
2022/10/21 08:30:41;;;;;;;;;;;7.70;99.90;;;;;;5012315;28;19929;-69
2022/10/21 08:33:08;;;;;;;;;;;7.80;99.90;;;;;;5023109;28;20008;-68
2022/10/21 08:35:35;;;;;;;;;;;7.80;99.90;;;;;;5027156;28;20402;-66
2022/10/21 08:38:02;;;;;;;;;;;7.90;99.90;;;;;;5020147;28;20695;-66
2022/10/21 08:40:33;;;;;;;;;;;7.90;99.90;;;;;;5019422;28;20218;-64
2022/10/21 08:43:05;;;;;;;;;;;7.90;99.90;;;;;;5011055;28;19974;-65
2022/10/21 08:45:43;;;;;;;;;;;8.00;99.90;;;;;;5018053;28;19926;-63
2022/10/21 08:48:15;;;;;;;;;;;8.10;99.90;;;;;;5014861;28;20326;-65
2022/10/21 08:50:45;;;;;;;;;;;8.20;99.90;;;;;;5020280;28;20020;-63
2022/10/21 08:53:15;;;;;;;;;;;8.20;99.90;;;;;;5009018;28;19932;-65
2022/10/21 08:55:43;;;;;;;;;;;8.30;99.90;;;;;;5020715;28;19933;-65
2022/10/21 08:58:14;;;;;;;;;;;8.40;99.90;;;;;;5012544;28;19947;-67
2022/10/21 09:00:42;;;;;;;;;;;8.50;99.90;;;;;;5015056;28;19925;-65
2022/10/21 09:03:15;;;;;;;;;;;8.60;99.90;;;;;;5015264;28;20496;-64
2022/10/21 09:05:51;;;;;;;;;;;8.70;99.90;;;;;;5014089;28;19991;-64
2022/10/21 09:08:33;;;;;;;;;;;8.80;99.90;;;;;;5015364;28;19930;-63
2022/10/21 09:11:09;;;;;;;;;;;8.90;99.90;;;;;;5008201;28;20011;-66
2022/10/21 09:13:46;;;;;;;;;;;9.00;99.90;;;;;;5016760;28;20440;-65
2022/10/21 09:16:18;;;;;;;;;;;9.10;99.90;;;;;;5021528;28;20459;-64
2022/10/21 09:18:54;;;;;;;;;;;9.10;99.90;;;;;;5018363;28;19929;-64
2022/10/21 09:21:36;;;;;;;;;;;9.30;99.90;;;;;;5021093;28;19944;-64
2022/10/21 09:24:12;;;;;;;;;;;9.30;99.90;;;;;;5021266;28;20321;-66
2022/10/21 09:26:40;;;;;;;;;;;9.30;99.90;;;;;;5014332;28;20212;-64
2022/10/21 09:29:26;;;;;;;;;;;9.30;99.90;;;;;;5012846;28;20011;-65
2022/10/21 09:32:01;;;;;;;;;;;9.30;99.90;;;;;;5018815;28;19939;-66
2022/10/21 09:34:47;;;;;;;;;;;9.40;99.90;;;;;;5017931;28;19929;-64
2022/10/21 09:37:30;;;;;;;;;;;9.40;99.90;;;;;;5015931;28;19934;-65
2022/10/21 09:40:12;;;;;;;;;;;9.40;99.90;;;;;;5019990;28;20044;-66
2022/10/21 09:42:39;;;;;;;;;;;9.50;99.90;;;;;;5012580;28;20312;-65
2022/10/21 09:45:19;;;;;;;;;;;9.50;99.90;;;;;;5014658;28;20298;-66
2022/10/21 09:47:48;;;;;;;;;;;9.60;99.90;;;;;;5020873;28;19929;-65
2022/10/21 09:50:15;;;;;;;;;;;9.60;99.90;;;;;;5019940;28;19931;-64
2022/10/21 09:52:45;;;;;;;;;;;9.70;99.90;;;;;;5018456;28;19951;-67
2022/10/21 09:55:12;;;;;;;;;;;9.70;99.90;;;;;;5014435;28;19955;-65
2022/10/21 09:57:43;;;;;;;;;;;9.80;99.90;;;;;;5009415;28;19929;-66
2022/10/21 10:00:10;;;;;;;;;;;9.80;99.90;;;;;;5011661;28;20020;-67
2022/10/21 10:02:42;;;;;;;;;;;9.90;99.90;;;;;;5016511;28;19926;-63
2022/10/21 10:05:35;;;;;;;;;;;10.00;99.90;;;;;;5009485;28;19930;-64
2022/10/21 10:08:21;;;;;;;;;;;10.10;99.90;;;;;;5010812;28;20024;-66
2022/10/21 10:10:48;;;;;;;;;;;10.20;99.90;;;;;;5013781;28;20004;-66
2022/10/21 10:13:18;;;;;;;;;;;10.30;99.90;;;;;;5014735;28;19925;-64
2022/10/21 10:15:45;;;;;;;;;;;10.40;99.90;;;;;;5007080;28;19955;-66
2022/10/21 10:18:19;;;;;;;;;;;10.50;99.90;;;;;;5015036;28;20025;-63
2022/10/21 10:20:46;;;;;;;;;;;10.60;99.90;;;;;;5013985;28;19929;-64
2022/10/21 10:23:17;;;;;;;;;;;10.70;99.90;;;;;;5016375;28;19937;-64
2022/10/21 10:25:48;;;;;;;;;;;10.80;99.90;;;;;;5021121;28;19925;-65
2022/10/21 10:28:21;;;;;;;;;;;10.90;99.90;;;;;;5018042;28;19960;-65
2022/10/21 10:30:57;;;;;;;;;;;10.90;99.90;;;;;;5022097;28;19987;-64
2022/10/21 10:33:26;;;;;;;;;;;11.00;99.90;;;;;;5015659;28;19929;-64
2022/10/21 10:35:56;;;;;;;;;;;11.00;99.90;;;;;;5019451;28;19935;-64
2022/10/21 10:38:32;;;;;;;;;;;11.10;99.90;;;;;;5024760;28;20015;-65
2022/10/21 10:41:06;;;;;;;;;;;11.10;99.90;;;;;;5012750;28;19929;-67
2022/10/21 10:43:34;;;;;;;;;;;11.10;99.90;;;;;;5013493;28;19967;-64
2022/10/21 10:46:02;;;;;;;;;;;11.20;99.90;;;;;;5015161;28;19933;-64
2022/10/21 10:48:44;;;;;;;;;;;11.20;99.90;;;;;;5013931;28;20355;-64
2022/10/21 10:51:25;;;;;;;;;;;11.20;99.90;;;;;;5015963;28;20331;-64
2022/10/21 10:54:10;;;;;;;;;;;11.30;99.90;;;;;;5014701;28;19928;-64
2022/10/21 10:56:43;;;;;;;;;;;11.30;99.90;;;;;;5015519;28;19929;-64
2022/10/21 10:59:14;;;;;;;;;;;11.30;99.90;;;;;;5018310;28;19925;-65
2022/10/21 11:02:03;;;;;;;;;;;11.40;99.90;;;;;;5014355;28;20621;-65
2022/10/21 11:04:32;;;;;;;;;;;11.40;99.90;;;;;;5012941;28;19937;-63
2022/10/21 11:07:03;;;;;;;;;;;11.40;99.90;;;;;;5012847;28;19936;-63
2022/10/21 11:09:31;;;;;;;;;;;11.40;99.90;;;;;;5013270;28;19971;-62
2022/10/21 11:12:00;;;;;;;;;;;11.40;99.90;;;;;;5013636;28;19982;-64
2022/10/21 11:14:27;;;;;;;;;;;11.30;99.90;;;;;;5021338;28;20387;-64
2022/10/21 11:17:04;;;;;;;;;;;11.30;99.90;;;;;;5016519;28;20009;-64
2022/10/21 11:19:49;;;;;;;;;;;11.20;99.90;;;;;;5011682;28;19929;-65
2022/10/21 11:22:16;;;;;;;;;;;11.30;99.90;;;;;;5014075;28;19943;-65
2022/10/21 11:25:06;;;;;;;;;;;11.30;99.90;;;;;;5011142;28;19933;-65
2022/10/21 11:27:38;;;;;;;;;;;11.30;99.90;;;;;;5023543;28;19970;-64
2022/10/21 11:30:11;;;;;;;;;;;11.20;99.90;;;;;;5018670;28;20664;-64
2022/10/21 11:32:51;;;;;;;;;;;11.20;99.90;;;;;;5013827;28;19932;-66
2022/10/21 11:35:29;;;;;;;;;;;11.20;99.90;;;;;;5011332;28;20743;-66
2022/10/21 11:38:02;;;;;;;;;;;11.20;99.90;;;;;;5014500;28;19940;-65
2022/10/21 11:40:38;;;;;;;;;;;11.10;99.90;;;;;;5019734;28;19933;-63
2022/10/21 11:43:26;;;;;;;;;;;11.20;99.90;;;;;;5010903;28;19933;-69
2022/10/21 11:45:57;;;;;;;;;;;11.20;99.90;;;;;;5016217;28;20455;-64
2022/10/21 11:48:40;;;;;;;;;;;11.30;99.90;;;;;;5020422;28;19972;-65
2022/10/21 11:51:19;;;;;;;;;;;11.30;99.90;;;;;;5011912;28;20063;-68
2022/10/21 11:53:55;;;;;;;;;;;11.30;99.90;;;;;;5016656;28;19999;-66
2022/10/21 11:56:24;;;;;;;;;;;11.30;99.90;;;;;;5013552;28;19929;-66
2022/10/21 11:59:09;;;;;;;;;;;11.40;99.90;;;;;;5010232;28;20235;-69
2022/10/21 12:01:39;;;;;;;;;;;11.50;99.90;;;;;;5014089;28;19965;-65
2022/10/21 12:04:17;;;;;;;;;;;11.60;99.90;;;;;;5017304;28;19940;-68
2022/10/21 12:07:00;;;;;;;;;;;11.60;99.90;;;;;;5016835;28;19979;-70
2022/10/21 12:09:29;;;;;;;;;;;11.60;99.90;;;;;;5013814;28;19929;-66
2022/10/21 12:12:01;;;;;;;;;;;11.60;99.90;;;;;;5008193;28;20028;-67
2022/10/21 12:14:37;;;;;;;;;;;11.70;99.90;;;;;;5019898;28;19936;-66
2022/10/21 12:17:10;;;;;;;;;;;11.70;99.90;;;;;;5014530;28;19947;-67
2022/10/21 12:19:37;;;;;;;;;;;11.70;99.90;;;;;;5014721;28;20573;-66
2022/10/21 12:22:04;;;;;;;;;;;11.60;99.90;;;;;;5018257;28;19982;-65
2022/10/21 12:24:40;;;;;;;;;;;11.50;99.90;;;;;;5009434;28;20791;-65
2022/10/21 12:27:10;;;;;;;;;;;11.50;99.90;;;;;;5013355;28;19929;-69
2022/10/21 12:29:46;;;;;;;;;;;11.50;99.90;;;;;;5011510;28;19931;-64
2022/10/21 12:32:22;;;;;;;;;;;11.40;99.90;;;;;;5016844;28;19929;-66
2022/10/21 12:34:49;;;;;;;;;;;11.40;99.90;;;;;;5013962;28;19932;-64
2022/10/21 12:37:35;;;;;;;;;;;11.40;99.90;;;;;;5013851;28;19933;-64
2022/10/21 12:40:10;;;;;;;;;;;11.30;99.90;;;;;;5020072;28;19983;-66
2022/10/21 12:42:42;;;;;;;;;;;11.20;99.90;;;;;;5014299;28;20322;-66
2022/10/21 12:45:25;;;;;;;;;;;11.20;99.90;;;;;;5014598;28;19947;-65
2022/10/21 12:47:52;;;;;;;;;;;11.10;99.90;;;;;;5014394;28;19934;-64
2022/10/21 12:50:29;;;;;;;;;;;11.10;99.90;;;;;;5014792;28;20374;-67
2022/10/21 12:53:05;;;;;;;;;;;11.10;99.90;;;;;;5016344;28;19984;-65
2022/10/21 12:55:38;;;;;;;;;;;11.10;99.90;;;;;;5012738;28;19935;-68
2022/10/21 12:58:25;;;;;;;;;;;11.10;99.90;;;;;;5014852;28;20020;-68
2022/10/21 13:00:53;;;;;;;;;;;11.10;99.90;;;;;;5013269;28;19929;-68
2022/10/21 13:03:21;;;;;;;;;;;11.10;99.90;;;;;;5011879;28;21515;-69
2022/10/21 13:05:48;;;;;;;;;;;11.10;99.90;;;;;;5024646;28;19925;-66
2022/10/21 13:08:21;;;;;;;;;;;11.10;99.90;;;;;;5014313;28;20709;-66
2022/10/21 13:11:04;;;;;;;;;;;11.00;99.90;;;;;;5012722;28;19929;-65
2022/10/21 13:13:30;;;;;;;;;;;11.00;99.90;;;;;;5013793;28;20003;-69
2022/10/21 13:15:58;;;;;;;;;;;11.00;99.90;;;;;;5011789;28;19956;-65
2022/10/21 13:18:44;;;;;;;;;;;11.00;99.90;;;;;;5026868;28;19924;-64
2022/10/21 13:21:40;;;;;;;;;;;10.90;99.90;;;;;;5019441;28;19936;-66
2022/10/21 13:24:09;;;;;;;;;;;10.90;99.90;;;;;;5006992;28;20142;-65
2022/10/21 13:26:41;;;;;;;;;;;10.90;99.90;;;;;;5014065;28;19926;-65
2022/10/21 13:29:07;;;;;;;;;;;10.80;99.90;;;;;;5016149;28;20016;-68
2022/10/21 13:31:38;;;;;;;;;;;10.80;99.90;;;;;;5014545;28;20020;-65
2022/10/21 13:34:05;;;;;;;;;;;10.70;99.90;;;;;;5011778;28;19926;-67
2022/10/21 13:36:38;;;;;;;;;;;10.60;99.90;;;;;;5011077;28;20019;-68
2022/10/21 13:39:07;;;;;;;;;;;10.60;99.90;;;;;;5013926;28;19929;-69
2022/10/21 13:41:34;;;;;;;;;;;10.50;99.90;;;;;;5011306;28;19930;-66
2022/10/21 13:44:03;;;;;;;;;;;10.50;99.90;;;;;;5012922;28;19933;-66
2022/10/21 13:46:31;;;;;;;;;;;10.50;99.90;;;;;;5015457;28;19936;-68
2022/10/21 13:48:59;;;;;;;;;;;10.40;99.90;;;;;;5020199;28;19933;-70
2022/10/21 13:51:28;;;;;;;;;;;10.40;99.90;;;;;;5022997;28;20760;-68
2022/10/21 13:53:56;;;;;;;;;;;10.30;99.90;;;;;;5015118;28;19973;-70
2022/10/21 13:56:25;;;;;;;;;;;10.30;99.90;;;;;;5020703;28;20534;-68
2022/10/21 13:58:52;;;;;;;;;;;10.30;99.90;;;;;;5020946;28;19929;-67
2022/10/21 14:01:20;;;;;;;;;;;10.30;99.90;;;;;;5016765;28;19967;-68
2022/10/21 14:03:48;;;;;;;;;;;10.30;99.90;;;;;;5019706;28;20016;-65
2022/10/21 14:06:34;;;;;;;;;;;10.30;99.90;;;;;;5012331;28;19925;-69
2022/10/21 14:09:04;;;;;;;;;;;10.20;99.90;;;;;;5018011;28;19925;-70
2022/10/21 14:11:39;;;;;;;;;;;10.20;99.90;;;;;;5012449;28;20488;-70
2022/10/21 14:14:07;;;;;;;;;;;10.20;99.90;;;;;;5024816;28;19937;-69
2022/10/21 14:16:36;;;;;;;;;;;10.10;99.90;;;;;;5016368;28;19947;-72
2022/10/21 14:19:08;;;;;;;;;;;10.10;99.90;;;;;;5018976;28;20489;-66
2022/10/21 14:21:36;;;;;;;;;;;10.10;99.90;;;;;;5019733;28;19929;-71
2022/10/21 14:24:04;;;;;;;;;;;10.00;99.90;;;;;;5022607;28;20345;-67
2022/10/21 14:26:32;;;;;;;;;;;10.00;99.90;;;;;;5013503;28;19933;-70
2022/10/21 14:28:59;;;;;;;;;;;10.00;99.90;;;;;;5009840;28;19925;-67
2022/10/21 14:31:26;;;;;;;;;;;10.00;99.90;;;;;;5010340;28;19929;-67
2022/10/21 14:33:53;;;;;;;;;;;9.90;99.90;;;;;;5014670;28;19968;-68
2022/10/21 14:36:22;;;;;;;;;;;9.90;99.90;;;;;;5012540;28;19925;-67
2022/10/21 14:38:48;;;;;;;;;;;9.90;99.90;;;;;;5012519;28;19930;-66
2022/10/21 14:41:18;;;;;;;;;;;9.80;99.90;;;;;;5011296;28;19929;-68
2022/10/21 14:43:46;;;;;;;;;;;9.80;99.90;;;;;;5012500;28;19929;-69